PAKWPAFE

Guest
Details From PAKW - KLAWOCK
To PAFE - KAKE
Flight Number -
Tags generated
Created
Modified
Stats Distance 88 nm / 163 km
Max Altitude 8,000 ft / 2,438 m
Waypoints 3
Social Downloads 0
Likes 0
Share VATSIM

Download

Looking for another format? Having issues loading an existing format? Contact us
Advertisement - Login to hide

Notes

Basic altitude profile: - Ascent Rate: 2500ft/min - Ascent Speed: 250kts - Cruise Altitude: 35000ft - Cruise Speed: 420kts - Descent Rate: 1500ft/min - Descent Speed: 250kts

Route

PAKW TOKEE PAFE

ID Type Via Altitude Latitude Longitude Leg Dist Tot Dist Heading (true) Name
O PAKW APT - 0 ft / 0 m 55.57923˚ -133.07600˚ - 0 nm - KLAWOCK
TOKEE FIX - 8,000 ft / 2,438 m 55.91250˚ -133.37881˚ 22 nm 22 nm 333° / 333° -
O PAFE APT - 0 ft / 0 m 56.96136˚ -133.91026˚ 65 nm 87 nm 345° / 344° KAKE

Altitude Profile

Advertisement - Login to hide

PAKW

Details ICAO PAKW (KLW)
Name KLAWOCK
Region USA (Alaska)
Timezone Unknown (UTC+0.0)
Stats Elevation 80 ft / 24 m (AMSL)
Location 55.579232° -133.075997°
Runways 1
Magnetic Variation 18.442° E

METAR

PAKW 212353Z AUTO VRB05KT 10SM OVC021 12/10 A2981 RMK AO2 RAE46 SLP093 P0000 60014 T01170100 10117 20100 50005 TSNO

Decode

TAF

PAKW 212328Z 2200/2224 15007KT P6SM -RA BKN020 OVC025 WS020/16040KT FM220400 16004KT P6SM -SHRA OVC025 FM221200 16006KT P6SM -SHRA SCT025 OVC040 FM221800 20004KT P6SM -SHRA BKN025 OVC040 AMD LTD TO CLD VIS AND WIND

Decode

Departure Runways

ID Width Length Bearing (true) Bearing (mag) Surface Threshold Offset Overrun Length
02 100 ft / 30 m 4,991 ft / 1,521 m 39.06° 20.62° Asphalt 0 ft / 0 m 0 ft / 0 m
20 100 ft / 30 m 4,991 ft / 1,521 m 219.07° 200.63° Asphalt 0 ft / 0 m 0 ft / 0 m

PAFE

Details ICAO PAFE (AFE)
Name KAKE
Region USA (Alaska)
Timezone America/Juneau (UTC-8.0)
Stats Elevation 172 ft / 52 m (AMSL)
Location 56.961362° -133.910261°
Runways 1
Magnetic Variation 18.734° E

METAR

PAFE 212356Z AUTO 12012G16KT 9SM -RA SCT014 BKN021 OVC027 11/09 A2981 RMK AO2 SLP106 P0000 60012 T01060089 10106 20094 53006 $

Decode

TAF

Not found

Destination Runways

ID Width Length Bearing (true) Bearing (mag) Surface Threshold Offset Overrun Length
10 100 ft / 30 m 3,990 ft / 1,216 m 129.93° 111.20° Asphalt 0 ft / 0 m 295 ft / 90 m
28 100 ft / 30 m 3,990 ft / 1,216 m 309.94° 291.21° Asphalt 1,000 ft / 305 m 295 ft / 90 m

Popular Alternatives